sensor_id;sensor_type;location;lat;lon;timestamp;pressure;altitude;pressure_sealevel;temperature;humidity
46690;BME280;32423;45.398;10.874;2022-09-03T00:08:58;100636.97;;;24.99;46.37
46690;BME280;32423;45.398;10.874;2022-09-03T00:11:49;100647.63;;;25.04;46.35
46690;BME280;32423;45.398;10.874;2022-09-03T00:14:40;100644.16;;;24.97;46.39
46690;BME280;32423;45.398;10.874;2022-09-03T00:17:34;100646.94;;;24.97;46.22
46690;BME280;32423;45.398;10.874;2022-09-03T00:23:27;100654.16;;;24.91;46.27
46690;BME280;32423;45.398;10.874;2022-09-03T00:26:32;100656.53;;;24.92;46.34
46690;BME280;32423;45.398;10.874;2022-09-03T00:29:28;100664.78;;;24.58;46.19
46690;BME280;32423;45.398;10.874;2022-09-03T00:32:36;100660.81;;;24.59;46.18
46690;BME280;32423;45.398;10.874;2022-09-03T00:35:45;100654.00;;;24.67;46.92
46690;BME280;32423;45.398;10.874;2022-09-03T00:38:32;100654.75;;;24.71;46.74
46690;BME280;32423;45.398;10.874;2022-09-03T00:41:26;100663.69;;;24.52;45.42
46690;BME280;32423;45.398;10.874;2022-09-03T00:50:40;100648.69;;;24.80;46.55
46690;BME280;32423;45.398;10.874;2022-09-03T00:56:45;100658.56;;;24.85;46.69
46690;BME280;32423;45.398;10.874;2022-09-03T01:02:59;100666.50;;;24.86;47.03
46690;BME280;32423;45.398;10.874;2022-09-03T01:09:02;100668.91;;;24.88;46.98
46690;BME280;32423;45.398;10.874;2022-09-03T01:11:59;100668.91;;;24.88;47.06
46690;BME280;32423;45.398;10.874;2022-09-03T01:18:10;100677.13;;;24.57;47.09
46690;BME280;32423;45.398;10.874;2022-09-03T01:21:20;100672.81;;;24.49;47.67
46690;BME280;32423;45.398;10.874;2022-09-03T01:24:32;100662.44;;;24.57;47.37
46690;BME280;32423;45.398;10.874;2022-09-03T01:30:23;100660.69;;;24.33;48.62
46690;BME280;32423;45.398;10.874;2022-09-03T01:33:18;100669.28;;;24.45;48.70
46690;BME280;32423;45.398;10.874;2022-09-03T01:39:30;100665.66;;;24.52;49.09
46690;BME280;32423;45.398;10.874;2022-09-03T01:42:21;100676.28;;;24.60;49.10
46690;BME280;32423;45.398;10.874;2022-09-03T01:51:27;100676.28;;;24.60;47.76
46690;BME280;32423;45.398;10.874;2022-09-03T01:54:22;100681.16;;;24.53;48.33
46690;BME280;32423;45.398;10.874;2022-09-03T01:57:44;100683.19;;;23.90;49.11
46690;BME280;32423;45.398;10.874;2022-09-03T02:00:33;100691.66;;;24.31;49.44
46690;BME280;32423;45.398;10.874;2022-09-03T02:03:19;100683.41;;;23.51;49.49
46690;BME280;32423;45.398;10.874;2022-09-03T02:06:04;100674.75;;;23.24;51.47
46690;BME280;32423;45.398;10.874;2022-09-03T02:08:51;100664.94;;;22.95;51.52
46690;BME280;32423;45.398;10.874;2022-09-03T02:11:36;100670.91;;;22.79;51.81
46690;BME280;32423;45.398;10.874;2022-09-03T02:14:24;100661.41;;;22.52;53.23
46690;BME280;32423;45.398;10.874;2022-09-03T02:17:10;100666.97;;;22.52;53.51
46690;BME280;32423;45.398;10.874;2022-09-03T02:19:55;100661.78;;;22.61;52.55
46690;BME280;32423;45.398;10.874;2022-09-03T02:22:41;100660.66;;;22.44;53.05
46690;BME280;32423;45.398;10.874;2022-09-03T02:25:35;100663.41;;;22.51;52.32
46690;BME280;32423;45.398;10.874;2022-09-03T02:28:21;100673.31;;;22.35;53.24
46690;BME280;32423;45.398;10.874;2022-09-03T02:31:06;100666.19;;;22.23;54.08
46690;BME280;32423;45.398;10.874;2022-09-03T02:33:51;100661.44;;;22.34;54.49
46690;BME280;32423;45.398;10.874;2022-09-03T02:36:40;100666.97;;;22.34;53.96
46690;BME280;32423;45.398;10.874;2022-09-03T02:39:26;100666.97;;;22.38;54.20
46690;BME280;32423;45.398;10.874;2022-09-03T02:42:13;100663.41;;;22.34;52.82
46690;BME280;32423;45.398;10.874;2022-09-03T02:45:21;100672.50;;;22.59;53.04
46690;BME280;32423;45.398;10.874;2022-09-03T02:48:08;100675.19;;;23.12;53.25
46690;BME280;32423;45.398;10.874;2022-09-03T02:50:54;100673.91;;;23.38;52.17
46690;BME280;32423;45.398;10.874;2022-09-03T02:53:39;100691.78;;;23.30;51.90
46690;BME280;32423;45.398;10.874;2022-09-03T02:56:24;100683.34;;;23.58;51.72
46690;BME280;32423;45.398;10.874;2022-09-03T02:59:11;100687.31;;;23.57;51.30
46690;BME280;32423;45.398;10.874;2022-09-03T03:01:56;100695.94;;;23.80;50.95
46690;BME280;32423;45.398;10.874;2022-09-03T03:04:40;100694.66;;;23.96;50.55
46690;BME280;32423;45.398;10.874;2022-09-03T03:07:27;100681.63;;;23.85;50.65
46690;BME280;32423;45.398;10.874;2022-09-03T03:10:13;100683.25;;;23.79;50.74
46690;BME280;32423;45.398;10.874;2022-09-03T03:12:58;100687.41;;;23.47;51.57
46690;BME280;32423;45.398;10.874;2022-09-03T03:15:44;100695.28;;;23.48;51.71
46690;BME280;32423;45.398;10.874;2022-09-03T03:18:29;100700.06;;;23.51;51.17
46690;BME280;32423;45.398;10.874;2022-09-03T03:21:16;100702.72;;;23.72;51.24
46690;BME280;32423;45.398;10.874;2022-09-03T03:24:02;100705.00;;;23.88;50.99
46690;BME280;32423;45.398;10.874;2022-09-03T03:26:46;100702.56;;;24.01;50.76
46690;BME280;32423;45.398;10.874;2022-09-03T03:29:31;100708.84;;;24.08;50.62
46690;BME280;32423;45.398;10.874;2022-09-03T03:32:16;100706.81;;;24.16;50.47
46690;BME280;32423;45.398;10.874;2022-09-03T03:35:01;100699.50;;;23.81;51.40
46690;BME280;32423;45.398;10.874;2022-09-03T03:37:46;100690.56;;;23.45;51.62
46690;BME280;32423;45.398;10.874;2022-09-03T03:40:31;100698.81;;;23.59;51.42
46690;BME280;32423;45.398;10.874;2022-09-03T03:43:16;100688.56;;;23.38;51.81
46690;BME280;32423;45.398;10.874;2022-09-03T03:46:00;100690.59;;;23.31;52.10
46690;BME280;32423;45.398;10.874;2022-09-03T03:48:47;100678.63;;;23.48;52.48
46690;BME280;32423;45.398;10.874;2022-09-03T03:51:32;100669.47;;;23.62;52.22
46690;BME280;32423;45.398;10.874;2022-09-03T03:54:17;100673.25;;;23.89;51.87
46690;BME280;32423;45.398;10.874;2022-09-03T03:57:03;100667.25;;;23.98;51.50
46690;BME280;32423;45.398;10.874;2022-09-03T03:59:48;100671.16;;;24.04;51.47
46690;BME280;32423;45.398;10.874;2022-09-03T04:02:33;100669.16;;;24.08;51.15
46690;BME280;32423;45.398;10.874;2022-09-03T04:05:17;100675.38;;;23.71;51.04
46690;BME280;32423;45.398;10.874;2022-09-03T04:08:02;100671.47;;;23.54;51.24
46690;BME280;32423;45.398;10.874;2022-09-03T04:10:47;100671.50;;;23.47;51.85
46690;BME280;32423;45.398;10.874;2022-09-03T04:13:34;100670.97;;;23.73;51.95
46690;BME280;32423;45.398;10.874;2022-09-03T04:16:21;100666.16;;;23.84;51.89
46690;BME280;32423;45.398;10.874;2022-09-03T04:19:07;100655.44;;;23.83;51.68
46690;BME280;32423;45.398;10.874;2022-09-03T04:21:51;100655.53;;;23.69;51.62
46690;BME280;32423;45.398;10.874;2022-09-03T04:24:35;100658.75;;;23.60;51.55
46690;BME280;32423;45.398;10.874;2022-09-03T04:27:20;100654.34;;;23.70;51.64
46690;BME280;32423;45.398;10.874;2022-09-03T04:30:06;100648.72;;;23.80;51.56
46690;BME280;32423;45.398;10.874;2022-09-03T04:32:51;100653.78;;;23.93;51.25
46690;BME280;32423;45.398;10.874;2022-09-03T04:35:39;100655.75;;;23.96;50.87
46690;BME280;32423;45.398;10.874;2022-09-03T04:38:24;100661.69;;;23.98;50.61
46690;BME280;32423;45.398;10.874;2022-09-03T04:41:11;100661.69;;;23.98;50.70
46690;BME280;32423;45.398;10.874;2022-09-03T04:43:57;100660.53;;;23.95;50.37
46690;BME280;32423;45.398;10.874;2022-09-03T04:46:42;100667.28;;;23.94;50.37
46690;BME280;32423;45.398;10.874;2022-09-03T04:49:30;100667.31;;;23.91;50.72
46690;BME280;32423;45.398;10.874;2022-09-03T04:52:15;100668.47;;;23.97;50.54
46690;BME280;32423;45.398;10.874;2022-09-03T04:55:01;100669.66;;;23.96;50.24
46690;BME280;32423;45.398;10.874;2022-09-03T04:57:46;100664.53;;;23.91;50.46
46690;BME280;32423;45.398;10.874;2022-09-03T05:00:31;100664.13;;;23.88;50.42
46690;BME280;32423;45.398;10.874;2022-09-03T05:03:15;100659.00;;;23.87;50.67
46690;BME280;32423;45.398;10.874;2022-09-03T05:06:01;100655.44;;;23.86;50.76
46690;BME280;32423;45.398;10.874;2022-09-03T05:08:47;100657.78;;;23.88;50.89
46690;BME280;32423;45.398;10.874;2022-09-03T05:11:33;100659.00;;;23.87;50.84
46690;BME280;32423;45.398;10.874;2022-09-03T05:14:18;100663.06;;;23.72;51.33
46690;BME280;32423;45.398;10.874;2022-09-03T05:17:03;100672.94;;;23.80;51.21
46690;BME280;32423;45.398;10.874;2022-09-03T05:19:48;100664.56;;;23.83;51.09
46690;BME280;32423;45.398;10.874;2022-09-03T05:22:33;100676.44;;;23.87;51.27
46690;BME280;32423;45.398;10.874;2022-09-03T05:25:18;100680.41;;;23.90;51.08
46690;BME280;32423;45.398;10.874;2022-09-03T05:28:03;100687.13;;;23.93;51.12
46690;BME280;32423;45.398;10.874;2022-09-03T05:31:00;100683.53;;;23.96;51.22
46690;BME280;32423;45.398;10.874;2022-09-03T05:33:48;100676.06;;;23.85;51.43
46690;BME280;32423;45.398;10.874;2022-09-03T05:36:35;100672.88;;;23.87;51.33
46690;BME280;32423;45.398;10.874;2022-09-03T05:39:20;100670.44;;;23.93;51.68
46690;BME280;32423;45.398;10.874;2022-09-03T05:42:04;100672.44;;;23.96;51.41
46690;BME280;32423;45.398;10.874;2022-09-03T05:44:48;100667.28;;;23.94;51.43
46690;BME280;32423;45.398;10.874;2022-09-03T05:47:33;100664.09;;;23.96;51.54
46690;BME280;32423;45.398;10.874;2022-09-03T05:50:19;100662.13;;;23.96;51.73
46690;BME280;32423;45.398;10.874;2022-09-03T05:53:04;100652.97;;;23.96;51.76
46690;BME280;32423;45.398;10.874;2022-09-03T05:56:00;100649.00;;;23.97;51.68
46690;BME280;32423;45.398;10.874;2022-09-03T05:58:50;100641.47;;;23.97;51.90
46690;BME280;32423;45.398;10.874;2022-09-03T06:01:38;100641.03;;;23.99;52.07
46690;BME280;32423;45.398;10.874;2022-09-03T06:04:22;100634.69;;;23.98;52.26
46690;BME280;32423;45.398;10.874;2022-09-03T06:07:07;100638.25;;;24.02;52.09
46690;BME280;32423;45.398;10.874;2022-09-03T06:09:52;100637.06;;;24.00;52.53
46690;BME280;32423;45.398;10.874;2022-09-03T06:12:38;100649.38;;;24.02;52.68
46690;BME280;32423;45.398;10.874;2022-09-03T06:15:23;100641.41;;;24.04;52.79
46690;BME280;32423;45.398;10.874;2022-09-03T06:18:08;100648.94;;;24.07;52.78
46690;BME280;32423;45.398;10.874;2022-09-03T06:20:57;100651.69;;;24.11;52.16
46690;BME280;32423;45.398;10.874;2022-09-03T06:23:42;100657.28;;;24.04;52.34
46690;BME280;32423;45.398;10.874;2022-09-03T06:26:32;100644.97;;;24.05;52.34
46690;BME280;32423;45.398;10.874;2022-09-03T06:29:17;100657.59;;;24.13;52.01
46690;BME280;32423;45.398;10.874;2022-09-03T06:32:03;100655.75;;;23.96;52.86
46690;BME280;32423;45.398;10.874;2022-09-03T06:34:48;100668.78;;;24.06;53.36
46690;BME280;32423;45.398;10.874;2022-09-03T06:37:38;100669.94;;;24.12;53.52
46690;BME280;32423;45.398;10.874;2022-09-03T06:40:23;100669.16;;;24.11;53.64
46690;BME280;32423;45.398;10.874;2022-09-03T06:43:09;100667.13;;;24.19;53.87
46690;BME280;32423;45.398;10.874;2022-09-03T06:48:41;100664.66;;;24.28;53.79
46690;BME280;32423;45.398;10.874;2022-09-03T06:51:27;100676.13;;;24.34;53.62
46690;BME280;32423;45.398;10.874;2022-09-03T06:54:12;100671.38;;;24.34;53.79
46690;BME280;32423;45.398;10.874;2022-09-03T06:56:59;100678.91;;;24.37;53.52
46690;BME280;32423;45.398;10.874;2022-09-03T06:59:44;100679.66;;;24.41;53.33
46690;BME280;32423;45.398;10.874;2022-09-03T07:02:29;100685.56;;;24.47;53.22
46690;BME280;32423;45.398;10.874;2022-09-03T07:05:14;100681.16;;;24.53;52.77
46690;BME280;32423;45.398;10.874;2022-09-03T07:07:59;100681.91;;;24.53;52.61
46690;BME280;32423;45.398;10.874;2022-09-03T07:10:45;100674.72;;;24.59;51.86
46690;BME280;32423;45.398;10.874;2022-09-03T07:13:31;100669.16;;;24.59;51.28
46690;BME280;32423;45.398;10.874;2022-09-03T07:16:19;100675.44;;;24.67;51.00
46690;BME280;32423;45.398;10.874;2022-09-03T07:19:04;100671.81;;;24.74;51.34
46690;BME280;32423;45.398;10.874;2022-09-03T07:21:50;100660.25;;;24.79;51.40
46690;BME280;32423;45.398;10.874;2022-09-03T07:24:35;100675.25;;;24.85;51.52
46690;BME280;32423;45.398;10.874;2022-09-03T07:27:21;100666.50;;;24.90;50.97
46690;BME280;32423;45.398;10.874;2022-09-03T07:30:06;100662.50;;;24.91;51.48
46690;BME280;32423;45.398;10.874;2022-09-03T07:32:54;100671.59;;;24.95;50.58
46690;BME280;32423;45.398;10.874;2022-09-03T07:35:38;100673.56;;;24.98;50.59
46690;BME280;32423;45.398;10.874;2022-09-03T07:38:24;100674.72;;;25.04;50.26
46690;BME280;32423;45.398;10.874;2022-09-03T07:41:10;100679.81;;;25.09;49.34
46690;BME280;32423;45.398;10.874;2022-09-03T07:43:55;100681.75;;;25.12;49.08
46690;BME280;32423;45.398;10.874;2022-09-03T07:46:40;100684.50;;;25.16;49.21
46690;BME280;32423;45.398;10.874;2022-09-03T07:49:25;100691.22;;;25.18;49.65
46690;BME280;32423;45.398;10.874;2022-09-03T07:52:10;100691.22;;;25.18;49.77
46690;BME280;32423;45.398;10.874;2022-09-03T07:54:54;100691.53;;;25.27;49.19
46690;BME280;32423;45.398;10.874;2022-09-03T07:57:39;100690.31;;;25.28;48.05
46690;BME280;32423;45.398;10.874;2022-09-03T08:00:24;100697.47;;;25.29;47.91
46690;BME280;32423;45.398;10.874;2022-09-03T08:03:09;100704.56;;;25.34;46.07
46690;BME280;32423;45.398;10.874;2022-09-03T08:06:00;100713.63;;;25.41;47.67
46690;BME280;32423;45.398;10.874;2022-09-03T08:08:45;100711.63;;;25.42;48.39
46690;BME280;32423;45.398;10.874;2022-09-03T08:11:32;100713.94;;;25.47;46.93
46690;BME280;32423;45.398;10.874;2022-09-03T08:14:18;100719.81;;;25.56;46.31
46690;BME280;32423;45.398;10.874;2022-09-03T08:17:03;100720.53;;;25.64;45.43
46690;BME280;32423;45.398;10.874;2022-09-03T08:19:48;100715.72;;;25.68;44.70
46690;BME280;32423;45.398;10.874;2022-09-03T08:22:33;100729.16;;;25.73;46.91
46690;BME280;32423;45.398;10.874;2022-09-03T08:25:18;100718.91;;;25.66;47.17
46690;BME280;32423;45.398;10.874;2022-09-03T08:28:03;100731.50;;;25.78;45.79
46690;BME280;32423;45.398;10.874;2022-09-03T08:30:48;100742.97;;;25.83;46.49
46690;BME280;32423;45.398;10.874;2022-09-03T08:33:33;100741.69;;;25.88;45.63
46690;BME280;32423;45.398;10.874;2022-09-03T08:36:25;100746.41;;;25.94;46.07
46690;BME280;32423;45.398;10.874;2022-09-03T08:39:10;100743.97;;;25.96;45.54
46690;BME280;32423;45.398;10.874;2022-09-03T08:44:55;100746.19;;;26.09;46.01
46690;BME280;32423;45.398;10.874;2022-09-03T08:47:43;100742.03;;;26.20;43.49
46690;BME280;32423;45.398;10.874;2022-09-03T08:50:37;100732.44;;;26.25;43.05
46690;BME280;32423;45.398;10.874;2022-09-03T08:53:27;100739.06;;;26.34;43.39
46690;BME280;32423;45.398;10.874;2022-09-03T08:56:23;100746.63;;;26.34;43.67
46690;BME280;32423;45.398;10.874;2022-09-03T08:59:09;100749.84;;;26.32;43.13
46690;BME280;32423;45.398;10.874;2022-09-03T09:14:18;100738.53;;;26.43;44.55
46690;BME280;32423;45.398;10.874;2022-09-03T09:20:05;100750.38;;;26.51;45.34
46690;BME280;32423;45.398;10.874;2022-09-03T09:22:56;100742.59;;;26.62;43.33
46690;BME280;32423;45.398;10.874;2022-09-03T09:25:48;100752.22;;;26.57;44.39
46690;BME280;32423;45.398;10.874;2022-09-03T09:28:35;100760.59;;;26.57;44.85
46690;BME280;32423;45.398;10.874;2022-09-03T09:31:21;100756.00;;;26.70;43.98
46690;BME280;32423;45.398;10.874;2022-09-03T09:34:06;100752.75;;;26.75;43.07
46690;BME280;32423;45.398;10.874;2022-09-03T09:36:53;100745.03;;;26.83;43.25
46690;BME280;32423;45.398;10.874;2022-09-03T09:39:41;100749.88;;;26.79;44.18
46690;BME280;32423;45.398;10.874;2022-09-03T09:42:36;100752.94;;;26.88;43.86
46690;BME280;32423;45.398;10.874;2022-09-03T09:45:22;100758.25;;;27.02;42.99
46690;BME280;32423;45.398;10.874;2022-09-03T09:48:12;100753.91;;;27.01;43.48
46690;BME280;32423;45.398;10.874;2022-09-03T09:54:24;100760.81;;;26.93;44.79
46690;BME280;32423;45.398;10.874;2022-09-03T09:57:16;100755.72;;;27.11;42.69
46690;BME280;32423;45.398;10.874;2022-09-03T10:00:05;100767.69;;;27.12;43.58
46690;BME280;32423;45.398;10.874;2022-09-03T10:02:55;100765.31;;;27.10;42.25
46690;BME280;32423;45.398;10.874;2022-09-03T10:05:40;100757.72;;;27.11;42.91
46690;BME280;32423;45.398;10.874;2022-09-03T10:08:27;100760.44;;;27.14;43.19
46690;BME280;32423;45.398;10.874;2022-09-03T10:11:12;100749.69;;;27.13;44.15
46690;BME280;32423;45.398;10.874;2022-09-03T10:13:57;100756.00;;;27.17;43.82
46690;BME280;32423;45.398;10.874;2022-09-03T10:16:46;100762.72;;;27.19;43.18
46690;BME280;32423;45.398;10.874;2022-09-03T10:19:41;100759.53;;;27.21;42.33
46690;BME280;32423;45.398;10.874;2022-09-03T10:22:27;100766.50;;;27.33;43.18
46690;BME280;32423;45.398;10.874;2022-09-03T10:25:14;100760.13;;;27.32;43.32
46690;BME280;32423;45.398;10.874;2022-09-03T10:28:00;100760.31;;;27.21;43.92
46690;BME280;32423;45.398;10.874;2022-09-03T10:33:52;100751.53;;;27.43;43.62
46690;BME280;32423;45.398;10.874;2022-09-03T10:40:06;100766.72;;;27.42;42.81
46690;BME280;32423;45.398;10.874;2022-09-03T10:45:52;100771.81;;;27.67;42.08
46690;BME280;32423;45.398;10.874;2022-09-03T10:55:22;100755.78;;;27.51;43.09
46690;BME280;32423;45.398;10.874;2022-09-03T11:07:03;100751.47;;;27.66;42.81
46690;BME280;32423;45.398;10.874;2022-09-03T11:09:54;100745.47;;;27.68;42.61
46690;BME280;32423;45.398;10.874;2022-09-03T11:13:01;100740.78;;;27.61;43.49
46690;BME280;32423;45.398;10.874;2022-09-03T11:16:10;100746.44;;;27.77;42.89
46690;BME280;32423;45.398;10.874;2022-09-03T11:19:06;100745.16;;;27.82;42.63
46690;BME280;32423;45.398;10.874;2022-09-03T11:21:51;100738.44;;;27.95;42.03
46690;BME280;32423;45.398;10.874;2022-09-03T11:24:38;100738.25;;;27.86;42.89
46690;BME280;32423;45.398;10.874;2022-09-03T11:30:47;100736.75;;;27.82;42.65
46690;BME280;32423;45.398;10.874;2022-09-03T11:33:40;100727.38;;;27.72;43.30
46690;BME280;32423;45.398;10.874;2022-09-03T11:36:30;100732.84;;;27.95;41.74
46690;BME280;32423;45.398;10.874;2022-09-03T11:47:58;100733.69;;;27.76;43.63
46690;BME280;32423;45.398;10.874;2022-09-03T11:50:52;100724.09;;;27.77;43.06
46690;BME280;32423;45.398;10.874;2022-09-03T11:53:37;100714.16;;;27.92;42.44
46690;BME280;32423;45.398;10.874;2022-09-03T11:56:22;100720.72;;;28.02;42.61
46690;BME280;32423;45.398;10.874;2022-09-03T12:02:02;100722.72;;;28.01;42.18
46690;BME280;32423;45.398;10.874;2022-09-03T12:14:11;100704.03;;;27.98;42.58
46690;BME280;32423;45.398;10.874;2022-09-03T12:17:10;100707.94;;;28.69;39.59
46690;BME280;32423;45.398;10.874;2022-09-03T12:19:57;100715.25;;;29.24;38.00
46690;BME280;32423;45.398;10.874;2022-09-03T12:22:43;100702.66;;;28.87;39.38
46690;BME280;32423;45.398;10.874;2022-09-03T12:25:28;100704.38;;;28.98;39.61
46690;BME280;32423;45.398;10.874;2022-09-03T12:28:17;100705.47;;;29.45;38.32
46690;BME280;32423;45.398;10.874;2022-09-03T12:31:15;100705.28;;;29.77;38.35
46690;BME280;32423;45.398;10.874;2022-09-03T12:34:09;100709.09;;;29.58;36.98
46690;BME280;32423;45.398;10.874;2022-09-03T12:36:54;100708.97;;;29.49;37.34
46690;BME280;32423;45.398;10.874;2022-09-03T12:42:47;100710.09;;;29.23;38.50
46690;BME280;32423;45.398;10.874;2022-09-03T12:45:42;100695.66;;;29.66;37.34
46690;BME280;32423;45.398;10.874;2022-09-03T12:48:28;100696.81;;;29.94;35.89
46690;BME280;32423;45.398;10.874;2022-09-03T12:51:13;100697.72;;;29.91;35.31
46690;BME280;32423;45.398;10.874;2022-09-03T12:54:10;100694.66;;;29.85;35.39
46690;BME280;32423;45.398;10.874;2022-09-03T12:57:00;100695.03;;;30.00;35.18
46690;BME280;32423;45.398;10.874;2022-09-03T12:59:46;100689.63;;;29.93;36.23
46690;BME280;32423;45.398;10.874;2022-09-03T13:08:45;100688.13;;;29.50;36.16
46690;BME280;32423;45.398;10.874;2022-09-03T13:11:34;100686.97;;;29.35;36.78
46690;BME280;32423;45.398;10.874;2022-09-03T13:14:21;100683.69;;;29.08;37.58
46690;BME280;32423;45.398;10.874;2022-09-03T13:17:34;100680.22;;;28.75;38.32
46690;BME280;32423;45.398;10.874;2022-09-03T13:29:52;100671.97;;;28.84;38.08
46690;BME280;32423;45.398;10.874;2022-09-03T13:35:43;100673.44;;;28.88;37.54
46690;BME280;32423;45.398;10.874;2022-09-03T13:38:59;100657.28;;;29.09;37.29
46690;BME280;32423;45.398;10.874;2022-09-03T13:42:05;100662.44;;;28.81;37.15
46690;BME280;32423;45.398;10.874;2022-09-03T13:45:02;100657.63;;;28.82;37.88
46690;BME280;32423;45.398;10.874;2022-09-03T13:47:57;100652.47;;;28.64;38.29
46690;BME280;32423;45.398;10.874;2022-09-03T13:51:15;100652.31;;;28.55;37.89
46690;BME280;32423;45.398;10.874;2022-09-03T13:54:26;100649.34;;;28.46;38.39
46690;BME280;32423;45.398;10.874;2022-09-03T13:57:44;100644.81;;;28.36;38.56
46690;BME280;32423;45.398;10.874;2022-09-03T14:00:41;100649.44;;;28.42;38.34
46690;BME280;32423;45.398;10.874;2022-09-03T14:03:46;100652.56;;;28.44;38.68
46690;BME280;32423;45.398;10.874;2022-09-03T14:06:39;100646.03;;;28.51;38.52
46690;BME280;32423;45.398;10.874;2022-09-03T14:09:32;100650.50;;;28.32;39.16
46690;BME280;32423;45.398;10.874;2022-09-03T14:15:26;100649.28;;;28.17;39.44
46690;BME280;32423;45.398;10.874;2022-09-03T14:27:38;100630.19;;;27.96;41.42
46690;BME280;32423;45.398;10.874;2022-09-03T14:30:54;100636.75;;;28.05;41.46
46690;BME280;32423;45.398;10.874;2022-09-03T14:34:06;100630.31;;;28.08;42.09
46690;BME280;32423;45.398;10.874;2022-09-03T14:40:20;100626.78;;;28.04;41.52
46690;BME280;32423;45.398;10.874;2022-09-03T14:43:17;100617.09;;;28.09;42.12
46690;BME280;32423;45.398;10.874;2022-09-03T14:55:18;100621.72;;;27.99;43.24
46690;BME280;32423;45.398;10.874;2022-09-03T15:01:10;100615.94;;;27.90;44.44
46690;BME280;32423;45.398;10.874;2022-09-03T15:13:09;100621.72;;;27.47;44.47
46690;BME280;32423;45.398;10.874;2022-09-03T15:19:15;100614.00;;;27.55;45.53
46690;BME280;32423;45.398;10.874;2022-09-03T15:25:17;100608.00;;;27.37;45.86
46690;BME280;32423;45.398;10.874;2022-09-03T15:40:49;100621.03;;;27.23;46.63
46690;BME280;32423;45.398;10.874;2022-09-03T15:43:35;100619.94;;;27.17;46.74
46690;BME280;32423;45.398;10.874;2022-09-03T15:49:22;100624.84;;;27.13;47.11
46690;BME280;32423;45.398;10.874;2022-09-03T15:58:27;100629.50;;;27.20;46.70
46690;BME280;32423;45.398;10.874;2022-09-03T16:10:34;100631.28;;;27.10;47.41
46690;BME280;32423;45.398;10.874;2022-09-03T16:16:25;100630.59;;;27.06;47.31
46690;BME280;32423;45.398;10.874;2022-09-03T16:19:40;100631.41;;;27.03;47.51
46690;BME280;32423;45.398;10.874;2022-09-03T16:22:47;100628.41;;;26.94;48.05
46690;BME280;32423;45.398;10.874;2022-09-03T16:25:54;100631.63;;;26.93;47.42
46690;BME280;32423;45.398;10.874;2022-09-03T16:28:45;100629.28;;;26.91;47.77
46690;BME280;32423;45.398;10.874;2022-09-03T16:35:10;100624.41;;;26.95;47.32
46690;BME280;32423;45.398;10.874;2022-09-03T16:41:09;100632.25;;;26.80;48.27
46690;BME280;32423;45.398;10.874;2022-09-03T16:47:06;100636.56;;;26.85;48.05
46690;BME280;32423;45.398;10.874;2022-09-03T17:05:48;100633.75;;;26.85;47.67
46690;BME280;32423;45.398;10.874;2022-09-03T17:08:46;100630.19;;;26.85;47.32
46690;BME280;32423;45.398;10.874;2022-09-03T17:11:49;100634.50;;;26.89;47.99
46690;BME280;32423;45.398;10.874;2022-09-03T17:17:50;100633.38;;;26.83;48.90
46690;BME280;32423;45.398;10.874;2022-09-03T17:36:09;100635.13;;;26.54;50.47
46690;BME280;32423;45.398;10.874;2022-09-03T17:42:05;100643.94;;;26.52;50.27
46690;BME280;32423;45.398;10.874;2022-09-03T17:45:02;100648.06;;;26.44;50.41
46690;BME280;32423;45.398;10.874;2022-09-03T17:51:04;100656.09;;;26.15;50.66
46690;BME280;32423;45.398;10.874;2022-09-03T17:54:05;100661.69;;;26.15;50.73
46690;BME280;32423;45.398;10.874;2022-09-03T18:02:49;100670.56;;;26.07;51.07
46690;BME280;32423;45.398;10.874;2022-09-03T18:05:47;100671.78;;;26.06;51.51
46690;BME280;32423;45.398;10.874;2022-09-03T18:08:57;100687.75;;;26.02;51.40
46690;BME280;32423;45.398;10.874;2022-09-03T18:12:11;100696.31;;;25.87;51.83
46690;BME280;32423;45.398;10.874;2022-09-03T18:15:20;100703.81;;;25.94;51.85
46690;BME280;32423;45.398;10.874;2022-09-03T18:18:23;100710.78;;;25.79;52.46
46690;BME280;32423;45.398;10.874;2022-09-03T18:21:12;100709.41;;;25.64;53.07
46690;BME280;32423;45.398;10.874;2022-09-03T18:24:22;100715.75;;;25.64;53.78
46690;BME280;32423;45.398;10.874;2022-09-03T18:27:39;100723.53;;;25.76;53.61
46690;BME280;32423;45.398;10.874;2022-09-03T18:30:45;100713.66;;;25.72;53.43
46690;BME280;32423;45.398;10.874;2022-09-03T18:33:48;100732.50;;;25.91;52.01
46690;BME280;32423;45.398;10.874;2022-09-03T18:36:56;100736.56;;;26.13;50.91
46690;BME280;32423;45.398;10.874;2022-09-03T18:40:00;100748.44;;;26.17;51.96
46690;BME280;32423;45.398;10.874;2022-09-03T18:43:18;100738.03;;;26.21;51.21
46690;BME280;32423;45.398;10.874;2022-09-03T18:46:41;100743.06;;;26.33;50.90
46690;BME280;32423;45.398;10.874;2022-09-03T18:59:48;100744.81;;;26.47;51.97
46690;BME280;32423;45.398;10.874;2022-09-03T19:13:33;100758.28;;;26.52;52.27
46690;BME280;32423;45.398;10.874;2022-09-03T19:16:58;100763.22;;;26.45;53.04
46690;BME280;32423;45.398;10.874;2022-09-03T19:23:22;100769.34;;;26.32;53.21
46690;BME280;32423;45.398;10.874;2022-09-03T19:26:33;100776.47;;;26.37;53.09
46690;BME280;32423;45.398;10.874;2022-09-03T19:39:45;100774.84;;;26.39;53.15
46690;BME280;32423;45.398;10.874;2022-09-03T19:53:17;100774.59;;;26.30;53.78
46690;BME280;32423;45.398;10.874;2022-09-03T19:56:26;100773.00;;;26.29;53.67
46690;BME280;32423;45.398;10.874;2022-09-03T19:59:35;100771.41;;;26.28;54.00